Time;durP1;ratioP1;P1;durP2;ratioP2;P2;SDS_P1;SDS_P2;PMS_P1;PMS_P2;Temp;Humidity;BMP_temperature;BMP_pressure;BME280_temperature;BME280_humidity;BME280_pressure;Samples;Min_cycle;Max_cycle;Signal;HPM_P1;HPM_P2
2022/03/09 00:01:35;;;;;;;;;;;18.50;99.90;;;;;;5044507;28;20325;-61
2022/03/09 00:04:03;;;;;;;;;;;18.50;99.90;;;;;;5037735;28;19929;-59
2022/03/09 00:06:30;;;;;;;;;;;18.40;99.90;;;;;;5038775;28;20345;-61
2022/03/09 00:08:58;;;;;;;;;;;18.40;99.90;;;;;;5036003;28;19929;-62
2022/03/09 00:11:45;;;;;;;;;;;18.40;99.90;;;;;;5029144;28;20004;-62
2022/03/09 00:14:12;;;;;;;;;;;18.40;99.90;;;;;;5046822;28;19979;-61
2022/03/09 00:16:39;;;;;;;;;;;18.40;99.90;;;;;;5031599;28;19944;-60
2022/03/09 00:19:08;;;;;;;;;;;18.40;99.90;;;;;;5046754;28;19928;-61
2022/03/09 00:21:36;;;;;;;;;;;18.30;99.90;;;;;;5047350;28;19951;-60
2022/03/09 00:24:03;;;;;;;;;;;18.40;99.90;;;;;;5042355;28;19925;-57
2022/03/09 00:26:30;;;;;;;;;;;18.30;99.90;;;;;;5037604;28;19928;-61
2022/03/09 00:28:57;;;;;;;;;;;18.30;99.90;;;;;;5048970;28;19936;-62
2022/03/09 00:31:24;;;;;;;;;;;18.30;99.90;;;;;;5048622;28;20050;-59
2022/03/09 00:33:51;;;;;;;;;;;18.30;99.90;;;;;;5044389;28;20407;-61
2022/03/09 00:36:19;;;;;;;;;;;18.30;99.90;;;;;;5043039;28;19952;-60
2022/03/09 00:38:46;;;;;;;;;;;18.30;99.90;;;;;;5043847;28;19940;-64
2022/03/09 00:41:13;;;;;;;;;;;18.30;99.90;;;;;;5045235;28;20292;-63
2022/03/09 00:43:41;;;;;;;;;;;18.20;99.90;;;;;;5048517;28;19933;-63
2022/03/09 00:46:08;;;;;;;;;;;18.30;99.90;;;;;;5040356;28;19932;-61
2022/03/09 00:48:38;;;;;;;;;;;18.30;99.90;;;;;;5044613;28;20301;-62
2022/03/09 00:51:05;;;;;;;;;;;18.20;99.90;;;;;;5045900;28;19948;-62
2022/03/09 00:53:32;;;;;;;;;;;18.20;99.90;;;;;;5053221;28;20379;-61
2022/03/09 00:55:59;;;;;;;;;;;18.10;99.90;;;;;;5040849;28;19933;-60
2022/03/09 00:58:27;;;;;;;;;;;18.10;99.90;;;;;;5048889;28;19929;-61
2022/03/09 01:00:55;;;;;;;;;;;18.10;99.90;;;;;;5049448;28;19936;-62
2022/03/09 01:03:23;;;;;;;;;;;18.10;99.90;;;;;;5047214;28;19925;-62
2022/03/09 01:05:50;;;;;;;;;;;18.10;99.90;;;;;;5041398;28;19928;-62
2022/03/09 01:08:17;;;;;;;;;;;18.10;99.90;;;;;;5048363;28;19929;-60
2022/03/09 01:10:44;;;;;;;;;;;18.00;99.90;;;;;;5036516;28;19928;-61
2022/03/09 01:13:11;;;;;;;;;;;18.10;99.90;;;;;;5038134;28;19932;-61
2022/03/09 01:15:39;;;;;;;;;;;18.10;99.90;;;;;;5047215;28;20380;-58
2022/03/09 01:18:06;;;;;;;;;;;18.10;99.90;;;;;;5029986;28;19928;-60
2022/03/09 01:20:33;;;;;;;;;;;18.10;99.90;;;;;;5045587;28;19929;-61
2022/03/09 01:23:00;;;;;;;;;;;18.10;99.90;;;;;;5036512;28;19955;-62
2022/03/09 01:25:27;;;;;;;;;;;18.10;99.90;;;;;;5040822;28;19928;-62
2022/03/09 01:27:54;;;;;;;;;;;18.10;99.90;;;;;;5046210;28;19959;-62
2022/03/09 01:30:21;;;;;;;;;;;18.10;99.90;;;;;;5038850;28;19933;-61
2022/03/09 01:32:48;;;;;;;;;;;18.10;99.90;;;;;;5047162;28;20331;-63
2022/03/09 01:35:16;;;;;;;;;;;18.10;99.90;;;;;;5040641;28;20288;-61
2022/03/09 01:37:45;;;;;;;;;;;18.10;99.90;;;;;;5035756;27;20419;-61
2022/03/09 01:40:13;;;;;;;;;;;18.00;99.90;;;;;;5032409;28;19948;-63
2022/03/09 01:42:40;;;;;;;;;;;18.00;99.90;;;;;;5047003;28;20789;-61
2022/03/09 01:45:11;;;;;;;;;;;17.90;99.90;;;;;;5038135;28;19925;-60
2022/03/09 01:47:38;;;;;;;;;;;17.90;99.90;;;;;;5047744;28;19932;-60
2022/03/09 01:50:08;;;;;;;;;;;17.90;99.90;;;;;;5035813;28;19936;-62
2022/03/09 01:52:36;;;;;;;;;;;17.90;99.90;;;;;;5037708;28;19960;-62
2022/03/09 01:55:04;;;;;;;;;;;17.90;99.90;;;;;;5056783;28;19936;-61
2022/03/09 01:57:31;;;;;;;;;;;17.90;99.90;;;;;;5050746;28;20108;-60
2022/03/09 01:59:59;;;;;;;;;;;17.90;99.90;;;;;;5049112;28;20312;-60
2022/03/09 02:02:26;;;;;;;;;;;17.90;99.90;;;;;;5044575;28;19936;-59
2022/03/09 02:04:54;;;;;;;;;;;17.90;99.90;;;;;;5044267;28;19929;-60
2022/03/09 02:09:41;;;;;;;;;;;17.80;99.90;;;;;;5037641;28;20487;-61
2022/03/09 02:10:09;;;;;;;;;;;17.80;99.90;;;;;;5029525;28;20312;-60
2022/03/09 02:12:37;;;;;;;;;;;17.80;99.90;;;;;;5031463;28;19936;-61
2022/03/09 02:15:04;;;;;;;;;;;17.80;99.90;;;;;;5042577;28;19933;-62
2022/03/09 02:17:31;;;;;;;;;;;17.80;99.90;;;;;;5047851;28;19929;-60
2022/03/09 02:20:02;;;;;;;;;;;17.80;99.90;;;;;;5039795;28;20317;-60
2022/03/09 02:22:33;;;;;;;;;;;17.80;99.90;;;;;;5040371;28;19937;-62
2022/03/09 02:25:07;;;;;;;;;;;17.80;99.90;;;;;;5033110;28;19925;-59
2022/03/09 02:27:35;;;;;;;;;;;17.80;99.90;;;;;;5044503;28;20392;-60
2022/03/09 02:30:05;;;;;;;;;;;17.80;99.90;;;;;;5046847;28;19929;-62
2022/03/09 02:32:33;;;;;;;;;;;17.80;99.90;;;;;;5044380;28;19925;-60
2022/03/09 02:35:01;;;;;;;;;;;17.80;99.90;;;;;;5064700;28;19928;-63
2022/03/09 02:37:28;;;;;;;;;;;17.80;99.90;;;;;;5042003;28;19929;-63
2022/03/09 02:39:55;;;;;;;;;;;17.70;99.90;;;;;;5028715;28;19929;-62
2022/03/09 02:42:22;;;;;;;;;;;17.70;99.90;;;;;;5041716;28;19936;-63
2022/03/09 02:44:49;;;;;;;;;;;17.70;99.90;;;;;;5029355;28;20358;-62
2022/03/09 02:47:17;;;;;;;;;;;17.70;99.90;;;;;;5037696;28;19924;-63
2022/03/09 02:49:44;;;;;;;;;;;17.70;99.90;;;;;;5047636;28;19936;-61
2022/03/09 02:52:11;;;;;;;;;;;17.70;99.90;;;;;;5028408;28;19929;-62
2022/03/09 02:54:38;;;;;;;;;;;17.70;99.90;;;;;;5042311;28;20365;-62
2022/03/09 02:57:06;;;;;;;;;;;17.60;99.90;;;;;;5040427;28;19952;-60
2022/03/09 02:59:33;;;;;;;;;;;17.60;99.90;;;;;;5038369;28;20213;-60
2022/03/09 03:02:01;;;;;;;;;;;17.60;99.90;;;;;;5031040;28;19932;-62
2022/03/09 03:04:28;;;;;;;;;;;17.60;99.90;;;;;;5040356;28;19936;-61
2022/03/09 03:06:55;;;;;;;;;;;17.60;99.90;;;;;;5043971;28;19929;-62
2022/03/09 03:09:23;;;;;;;;;;;17.60;99.90;;;;;;5039289;28;19933;-61
2022/03/09 03:11:50;;;;;;;;;;;17.60;99.90;;;;;;5028249;28;19929;-62
2022/03/09 03:14:17;;;;;;;;;;;17.60;99.90;;;;;;5044687;28;19948;-61
2022/03/09 03:16:46;;;;;;;;;;;17.60;99.90;;;;;;5038133;28;20304;-60
2022/03/09 03:19:13;;;;;;;;;;;17.60;99.90;;;;;;5036148;28;19936;-62
2022/03/09 03:21:40;;;;;;;;;;;17.60;99.90;;;;;;5043589;28;19929;-62
2022/03/09 03:24:07;;;;;;;;;;;17.60;99.90;;;;;;5041392;28;19936;-62
2022/03/09 03:26:34;;;;;;;;;;;17.60;99.90;;;;;;5029669;28;19948;-62
2022/03/09 03:29:01;;;;;;;;;;;17.50;99.90;;;;;;5039054;28;19936;-60
2022/03/09 03:31:31;;;;;;;;;;;17.50;99.90;;;;;;5039436;28;20399;-62
2022/03/09 03:33:58;;;;;;;;;;;17.50;99.90;;;;;;5039305;28;20372;-61
2022/03/09 03:36:25;;;;;;;;;;;17.50;99.90;;;;;;5044480;28;19936;-62
2022/03/09 03:38:53;;;;;;;;;;;17.50;99.90;;;;;;5039030;28;19925;-63
2022/03/09 03:41:20;;;;;;;;;;;17.50;99.90;;;;;;5031849;28;19929;-61
2022/03/09 03:43:47;;;;;;;;;;;17.50;99.90;;;;;;5038289;28;19929;-60
2022/03/09 03:46:14;;;;;;;;;;;17.50;99.90;;;;;;5038544;28;19929;-60
2022/03/09 03:48:41;;;;;;;;;;;17.50;99.90;;;;;;5044702;28;19936;-62
2022/03/09 03:51:08;;;;;;;;;;;17.50;99.90;;;;;;5031313;28;19929;-60
2022/03/09 03:53:36;;;;;;;;;;;17.50;99.90;;;;;;5047721;28;19936;-61
2022/03/09 03:56:03;;;;;;;;;;;17.50;99.90;;;;;;5042021;28;19925;-59
2022/03/09 03:58:30;;;;;;;;;;;17.50;99.90;;;;;;5039351;28;19944;-60
2022/03/09 04:00:58;;;;;;;;;;;17.50;99.90;;;;;;5038105;28;19929;-58
2022/03/09 04:03:25;;;;;;;;;;;17.50;99.90;;;;;;5043246;28;19933;-62
2022/03/09 04:05:53;;;;;;;;;;;17.60;99.90;;;;;;5041119;28;19925;-60
2022/03/09 04:08:20;;;;;;;;;;;17.50;99.90;;;;;;5050924;28;19956;-62
2022/03/09 04:10:47;;;;;;;;;;;17.60;99.90;;;;;;5031901;28;19925;-62
2022/03/09 04:13:14;;;;;;;;;;;17.50;99.90;;;;;;5045243;28;19925;-59
2022/03/09 04:15:41;;;;;;;;;;;17.40;99.90;;;;;;5037860;28;19933;-62
2022/03/09 04:18:08;;;;;;;;;;;17.40;99.90;;;;;;5046374;28;19932;-60
2022/03/09 04:20:35;;;;;;;;;;;17.40;99.90;;;;;;5042255;28;19940;-61
2022/03/09 04:23:08;;;;;;;;;;;17.30;99.90;;;;;;5043650;28;19960;-61
2022/03/09 04:25:36;;;;;;;;;;;17.30;99.90;;;;;;5042589;28;20016;-60
2022/03/09 04:28:07;;;;;;;;;;;17.30;99.90;;;;;;5036496;28;19929;-60
2022/03/09 04:30:34;;;;;;;;;;;17.30;99.90;;;;;;5043915;28;19928;-58
2022/03/09 04:33:01;;;;;;;;;;;17.30;99.90;;;;;;5052368;28;19932;-62
2022/03/09 04:35:28;;;;;;;;;;;17.30;99.90;;;;;;5078048;28;20312;-62
2022/03/09 04:37:56;;;;;;;;;;;17.30;99.90;;;;;;5059977;28;19929;-61
2022/03/09 04:40:23;;;;;;;;;;;17.20;99.90;;;;;;5036361;28;19979;-60
2022/03/09 04:42:52;;;;;;;;;;;17.20;99.90;;;;;;5043885;28;19955;-61
2022/03/09 04:45:19;;;;;;;;;;;17.20;99.90;;;;;;5044948;28;20389;-62
2022/03/09 04:47:47;;;;;;;;;;;17.20;99.90;;;;;;5044358;28;19955;-59
2022/03/09 04:50:14;;;;;;;;;;;17.20;99.90;;;;;;5029955;28;19925;-61
2022/03/09 04:52:41;;;;;;;;;;;17.30;99.90;;;;;;5030923;28;19929;-60
2022/03/09 04:55:08;;;;;;;;;;;17.30;99.90;;;;;;5038257;28;19948;-59
2022/03/09 04:57:36;;;;;;;;;;;17.40;99.90;;;;;;5029626;28;19940;-62
2022/03/09 05:00:04;;;;;;;;;;;17.40;99.90;;;;;;5045902;28;20043;-58
2022/03/09 05:02:31;;;;;;;;;;;17.60;99.80;;;;;;5039307;28;20275;-62
2022/03/09 05:04:59;;;;;;;;;;;17.80;99.60;;;;;;5042477;28;19925;-63
2022/03/09 05:07:27;;;;;;;;;;;17.90;99.40;;;;;;5050021;28;19944;-63
2022/03/09 05:09:54;;;;;;;;;;;18.00;99.30;;;;;;5059810;28;19933;-62
2022/03/09 05:12:21;;;;;;;;;;;18.00;99.10;;;;;;5054709;28;19928;-61
2022/03/09 05:14:48;;;;;;;;;;;18.20;98.90;;;;;;5050312;28;20324;-61
2022/03/09 05:17:15;;;;;;;;;;;18.30;98.80;;;;;;5041259;28;19929;-63
2022/03/09 05:19:42;;;;;;;;;;;18.50;98.90;;;;;;5040524;28;19948;-60
2022/03/09 05:22:09;;;;;;;;;;;18.60;98.70;;;;;;5043881;28;19928;-61
2022/03/09 05:24:44;;;;;;;;;;;18.80;98.70;;;;;;5046530;28;19967;-58
2022/03/09 05:27:11;;;;;;;;;;;18.90;98.60;;;;;;5048126;28;19929;-62
2022/03/09 05:29:38;;;;;;;;;;;19.00;98.40;;;;;;5048599;28;20388;-64
2022/03/09 05:32:06;;;;;;;;;;;19.10;98.30;;;;;;5046981;28;19929;-63
2022/03/09 05:34:33;;;;;;;;;;;19.20;98.10;;;;;;5050404;28;20373;-63
2022/03/09 05:37:00;;;;;;;;;;;19.30;98.00;;;;;;5049508;28;20134;-64
2022/03/09 05:39:27;;;;;;;;;;;19.30;98.00;;;;;;5035409;28;20408;-62
2022/03/09 05:41:54;;;;;;;;;;;19.40;98.00;;;;;;5052103;28;19936;-62
2022/03/09 05:44:21;;;;;;;;;;;19.40;98.00;;;;;;5050350;28;19936;-63
2022/03/09 05:46:50;;;;;;;;;;;19.40;98.10;;;;;;5051480;28;19940;-63
2022/03/09 05:49:17;;;;;;;;;;;19.50;98.00;;;;;;5049723;28;20300;-64
2022/03/09 05:51:44;;;;;;;;;;;19.40;98.00;;;;;;5039576;28;19940;-64
2022/03/09 05:54:11;;;;;;;;;;;19.40;98.00;;;;;;5044605;28;19925;-63
2022/03/09 05:56:39;;;;;;;;;;;19.40;98.10;;;;;;5044246;28;19935;-64
2022/03/09 05:59:06;;;;;;;;;;;19.40;98.20;;;;;;5046770;28;19956;-60
2022/03/09 06:01:33;;;;;;;;;;;19.30;98.40;;;;;;5060311;28;19929;-61
2022/03/09 06:04:02;;;;;;;;;;;19.30;98.20;;;;;;5045161;28;20383;-62
2022/03/09 06:06:29;;;;;;;;;;;19.30;98.30;;;;;;5052794;28;19928;-60
2022/03/09 06:08:57;;;;;;;;;;;19.30;98.40;;;;;;5048235;28;19925;-61
2022/03/09 06:11:24;;;;;;;;;;;19.20;98.40;;;;;;5047829;28;19948;-60
2022/03/09 06:13:51;;;;;;;;;;;19.20;98.50;;;;;;5041444;28;19929;-60
2022/03/09 06:16:18;;;;;;;;;;;19.20;98.50;;;;;;5046789;28;19936;-59
2022/03/09 06:18:46;;;;;;;;;;;19.20;98.50;;;;;;5047818;28;19929;-59
2022/03/09 06:21:13;;;;;;;;;;;19.20;98.50;;;;;;5039094;28;19933;-61
2022/03/09 06:23:40;;;;;;;;;;;19.20;98.60;;;;;;5041546;28;19929;-59
2022/03/09 06:26:08;;;;;;;;;;;19.20;98.60;;;;;;5048165;28;19932;-62
2022/03/09 06:28:36;;;;;;;;;;;19.20;98.60;;;;;;5047137;28;19935;-60
2022/03/09 06:31:03;;;;;;;;;;;19.20;98.60;;;;;;5046305;28;19929;-60
2022/03/09 06:33:30;;;;;;;;;;;19.20;98.60;;;;;;5048700;28;20016;-60
2022/03/09 06:35:57;;;;;;;;;;;19.20;98.60;;;;;;5049585;28;20393;-57
2022/03/09 06:38:25;;;;;;;;;;;19.20;98.50;;;;;;5047995;28;19929;-58
2022/03/09 06:40:52;;;;;;;;;;;19.10;98.50;;;;;;5044484;28;19929;-62
2022/03/09 06:43:19;;;;;;;;;;;19.10;98.60;;;;;;5045965;28;19936;-61
2022/03/09 06:45:46;;;;;;;;;;;19.10;98.80;;;;;;5047099;28;19929;-62
2022/03/09 06:48:14;;;;;;;;;;;19.10;98.50;;;;;;5045581;28;19936;-60
2022/03/09 06:50:41;;;;;;;;;;;19.10;98.60;;;;;;5043622;28;19932;-60
2022/03/09 06:53:09;;;;;;;;;;;19.10;98.60;;;;;;5042351;28;19931;-61
2022/03/09 06:55:36;;;;;;;;;;;19.00;98.70;;;;;;5045749;28;19929;-59
2022/03/09 06:58:03;;;;;;;;;;;19.00;98.70;;;;;;5040642;28;19933;-61
2022/03/09 07:00:31;;;;;;;;;;;18.90;98.70;;;;;;5049182;28;19936;-61
2022/03/09 07:02:59;;;;;;;;;;;18.90;98.80;;;;;;5047476;28;19936;-61
2022/03/09 07:05:27;;;;;;;;;;;18.90;98.70;;;;;;5041308;28;19929;-60
2022/03/09 07:07:54;;;;;;;;;;;18.80;98.80;;;;;;5045307;28;20327;-59
2022/03/09 07:10:22;;;;;;;;;;;18.80;98.80;;;;;;5042853;28;20340;-63
2022/03/09 07:12:49;;;;;;;;;;;18.80;98.80;;;;;;5052111;28;19933;-61
2022/03/09 07:15:16;;;;;;;;;;;18.80;98.70;;;;;;5049516;28;20423;-60
2022/03/09 07:17:45;;;;;;;;;;;18.70;98.70;;;;;;5045298;28;19925;-61
2022/03/09 07:20:13;;;;;;;;;;;18.70;98.80;;;;;;5047435;28;19929;-59
2022/03/09 07:22:41;;;;;;;;;;;18.70;97.60;;;;;;5048393;28;19955;-62
2022/03/09 07:25:09;;;;;;;;;;;18.60;96.00;;;;;;5044498;28;19924;-65
2022/03/09 07:27:37;;;;;;;;;;;18.50;95.80;;;;;;5040230;28;19929;-67
2022/03/09 07:30:05;;;;;;;;;;;18.50;95.60;;;;;;5032585;28;19933;-64
2022/03/09 07:32:32;;;;;;;;;;;18.50;95.60;;;;;;5025508;28;19936;-65
2022/03/09 07:35:18;;;;;;;;;;;18.50;95.80;;;;;;5033395;28;19929;-68
2022/03/09 07:37:45;;;;;;;;;;;18.40;95.90;;;;;;5051898;28;19936;-65
2022/03/09 07:40:14;;;;;;;;;;;18.40;96.10;;;;;;5032396;28;19944;-66
2022/03/09 07:42:44;;;;;;;;;;;18.40;96.20;;;;;;5045606;28;19925;-66
2022/03/09 07:45:11;;;;;;;;;;;18.40;96.40;;;;;;5044372;28;20316;-66
2022/03/09 07:47:38;;;;;;;;;;;18.40;96.50;;;;;;5070171;28;20308;-67
2022/03/09 07:50:06;;;;;;;;;;;18.40;96.60;;;;;;5040667;28;19929;-68
2022/03/09 07:52:34;;;;;;;;;;;18.30;96.80;;;;;;5075115;28;19969;-66
2022/03/09 07:55:04;;;;;;;;;;;18.30;97.20;;;;;;5043684;28;19925;-66
2022/03/09 07:57:32;;;;;;;;;;;18.30;97.10;;;;;;5046848;28;19935;-68
2022/03/09 08:00:00;;;;;;;;;;;18.30;97.20;;;;;;5045211;28;19924;-67
2022/03/09 08:02:38;;;;;;;;;;;18.30;97.30;;;;;;5044101;28;19925;-67
2022/03/09 08:05:05;;;;;;;;;;;18.30;97.40;;;;;;5052142;28;19929;-67
2022/03/09 08:07:34;;;;;;;;;;;18.30;97.50;;;;;;5032760;28;19959;-67
2022/03/09 08:10:01;;;;;;;;;;;18.30;97.60;;;;;;5047746;28;19940;-68
2022/03/09 08:12:29;;;;;;;;;;;18.20;97.90;;;;;;5049420;28;19940;-67
2022/03/09 08:14:57;;;;;;;;;;;18.20;97.80;;;;;;5042134;28;19932;-67
2022/03/09 08:17:24;;;;;;;;;;;18.20;97.90;;;;;;5047052;28;19929;-66
2022/03/09 08:19:56;;;;;;;;;;;18.20;97.90;;;;;;5040470;28;20389;-69
2022/03/09 08:22:24;;;;;;;;;;;18.20;98.00;;;;;;5068098;28;19935;-67
2022/03/09 08:24:51;;;;;;;;;;;18.10;98.00;;;;;;5040901;28;20392;-67
2022/03/09 08:27:18;;;;;;;;;;;18.10;98.10;;;;;;5040005;28;19929;-66
2022/03/09 08:29:46;;;;;;;;;;;18.10;98.20;;;;;;5046879;28;19940;-68
2022/03/09 08:32:14;;;;;;;;;;;18.20;98.20;;;;;;5034216;28;19937;-70
2022/03/09 08:34:41;;;;;;;;;;;18.10;98.20;;;;;;5039139;28;19932;-66
2022/03/09 08:37:09;;;;;;;;;;;18.20;98.20;;;;;;5047674;28;20360;-66
2022/03/09 08:39:36;;;;;;;;;;;18.20;98.20;;;;;;5046061;28;19929;-68
2022/03/09 08:42:04;;;;;;;;;;;18.20;98.20;;;;;;5044634;28;19936;-66
2022/03/09 08:44:40;;;;;;;;;;;18.20;98.30;;;;;;5044829;28;19936;-67
2022/03/09 08:47:07;;;;;;;;;;;18.30;98.30;;;;;;5044978;28;19936;-68
2022/03/09 08:49:39;;;;;;;;;;;18.30;98.30;;;;;;5044262;28;19929;-69
2022/03/09 08:52:07;;;;;;;;;;;18.30;98.40;;;;;;5042882;28;19928;-66
2022/03/09 08:54:34;;;;;;;;;;;18.30;98.40;;;;;;5048250;28;19933;-66
2022/03/09 08:57:02;;;;;;;;;;;18.30;98.40;;;;;;5042339;28;19925;-69
2022/03/09 08:59:30;;;;;;;;;;;18.30;98.40;;;;;;5034462;28;19936;-68
2022/03/09 09:01:58;;;;;;;;;;;18.30;98.40;;;;;;5039083;28;19929;-66
2022/03/09 09:04:25;;;;;;;;;;;18.30;98.50;;;;;;5033469;28;20308;-67
2022/03/09 09:06:53;;;;;;;;;;;18.40;98.40;;;;;;5038629;28;20300;-66
2022/03/09 09:09:20;;;;;;;;;;;18.70;98.10;;;;;;5050256;28;19929;-65
2022/03/09 09:11:47;;;;;;;;;;;18.80;98.00;;;;;;5040154;28;19925;-67
2022/03/09 09:14:15;;;;;;;;;;;19.00;97.80;;;;;;5034712;28;20428;-66
2022/03/09 09:16:47;;;;;;;;;;;19.20;97.60;;;;;;5053582;28;20411;-68
2022/03/09 09:19:15;;;;;;;;;;;19.30;97.30;;;;;;5051811;28;20472;-67
2022/03/09 09:21:45;;;;;;;;;;;19.50;97.10;;;;;;5042684;28;19951;-67
2022/03/09 09:24:12;;;;;;;;;;;19.60;97.00;;;;;;5046167;28;20384;-67
2022/03/09 09:26:40;;;;;;;;;;;19.70;97.00;;;;;;5047443;28;19940;-68
2022/03/09 09:29:16;;;;;;;;;;;19.70;96.90;;;;;;5050852;28;20434;-68
2022/03/09 09:31:46;;;;;;;;;;;19.70;96.90;;;;;;5057979;28;19955;-67
2022/03/09 09:34:13;;;;;;;;;;;19.70;96.60;;;;;;5047962;28;19928;-67
2022/03/09 09:36:45;;;;;;;;;;;19.60;95.00;;;;;;5042512;28;19929;-66
2022/03/09 09:39:13;;;;;;;;;;;19.50;93.30;;;;;;5045242;28;19928;-67
2022/03/09 09:41:41;;;;;;;;;;;19.50;92.70;;;;;;5048836;28;20115;-66
2022/03/09 09:44:12;;;;;;;;;;;19.60;92.70;;;;;;5047491;28;20316;-66
2022/03/09 09:46:41;;;;;;;;;;;19.60;93.00;;;;;;5048145;28;19936;-67
2022/03/09 09:49:09;;;;;;;;;;;19.70;93.20;;;;;;5049495;28;19928;-66
2022/03/09 09:51:39;;;;;;;;;;;19.70;93.40;;;;;;5049111;28;19932;-66
2022/03/09 09:54:07;;;;;;;;;;;19.70;93.60;;;;;;5041311;28;19929;-67
2022/03/09 09:56:35;;;;;;;;;;;19.70;93.80;;;;;;5048476;28;19944;-66
2022/03/09 09:59:02;;;;;;;;;;;19.70;94.00;;;;;;5048400;28;19929;-66
2022/03/09 10:01:30;;;;;;;;;;;19.70;94.20;;;;;;5048377;28;19929;-67
2022/03/09 10:03:57;;;;;;;;;;;19.60;94.60;;;;;;5045091;28;19928;-67
2022/03/09 10:06:25;;;;;;;;;;;19.70;94.70;;;;;;5048060;28;19933;-66
2022/03/09 10:09:00;;;;;;;;;;;19.60;94.80;;;;;;5046686;28;21474;-68
2022/03/09 10:11:46;;;;;;;;;;;19.60;95.10;;;;;;5060041;28;19928;-67
2022/03/09 10:14:13;;;;;;;;;;;19.60;95.30;;;;;;5049517;28;19929;-66
2022/03/09 10:17:03;;;;;;;;;;;19.70;96.20;;;;;;5048864;28;19951;-67
2022/03/09 10:19:32;;;;;;;;;;;19.70;96.80;;;;;;5046256;28;20004;-66
2022/03/09 10:22:19;;;;;;;;;;;19.70;97.10;;;;;;5046985;28;19929;-67
2022/03/09 10:25:09;;;;;;;;;;;19.80;97.60;;;;;;5041637;28;19928;-66
2022/03/09 10:27:40;;;;;;;;;;;19.80;97.70;;;;;;5044953;28;19935;-67
2022/03/09 10:30:13;;;;;;;;;;;19.80;98.10;;;;;;5043498;28;19936;-66
2022/03/09 10:32:49;;;;;;;;;;;19.70;98.30;;;;;;5036124;28;20412;-64
2022/03/09 10:35:19;;;;;;;;;;;19.80;98.70;;;;;;5035466;28;19929;-66
2022/03/09 10:37:47;;;;;;;;;;;19.80;98.60;;;;;;5041866;28;20419;-65
2022/03/09 10:40:17;;;;;;;;;;;19.80;98.70;;;;;;5041861;28;19940;-64
2022/03/09 10:42:45;;;;;;;;;;;19.80;99.00;;;;;;5047848;28;20392;-68
2022/03/09 10:45:14;;;;;;;;;;;19.80;99.30;;;;;;5046286;28;19928;-67
2022/03/09 10:47:44;;;;;;;;;;;19.90;99.60;;;;;;5043840;28;19929;-67
2022/03/09 10:50:11;;;;;;;;;;;19.80;99.50;;;;;;5044827;28;19925;-65
2022/03/09 10:52:41;;;;;;;;;;;19.80;99.90;;;;;;5048857;28;20303;-66
2022/03/09 10:55:27;;;;;;;;;;;19.70;99.90;;;;;;5042751;28;19945;-67
2022/03/09 10:58:11;;;;;;;;;;;19.70;99.90;;;;;;5045779;28;20231;-67
2022/03/09 11:00:45;;;;;;;;;;;19.70;99.90;;;;;;5043443;28;19932;-67
2022/03/09 11:03:15;;;;;;;;;;;19.70;99.90;;;;;;5050991;28;19928;-66
2022/03/09 11:05:55;;;;;;;;;;;19.70;99.90;;;;;;5042598;28;19925;-67
2022/03/09 11:08:26;;;;;;;;;;;19.60;99.90;;;;;;5049569;28;19928;-64
2022/03/09 11:10:55;;;;;;;;;;;19.70;99.90;;;;;;5048836;28;19932;-66
2022/03/09 11:13:22;;;;;;;;;;;19.60;99.90;;;;;;5048540;28;19929;-66
2022/03/09 11:15:50;;;;;;;;;;;19.50;99.90;;;;;;5058053;28;19928;-66
2022/03/09 11:18:19;;;;;;;;;;;19.50;99.90;;;;;;5053670;28;20028;-67
2022/03/09 11:20:51;;;;;;;;;;;19.50;99.90;;;;;;5052389;28;19925;-69
2022/03/09 11:23:19;;;;;;;;;;;19.40;99.90;;;;;;5052509;28;20376;-66
2022/03/09 11:25:58;;;;;;;;;;;19.30;99.80;;;;;;5054916;28;19940;-67
2022/03/09 11:28:29;;;;;;;;;;;19.30;99.90;;;;;;5056271;28;19940;-67
2022/03/09 11:31:01;;;;;;;;;;;19.30;99.90;;;;;;5050452;28;19925;-67
2022/03/09 11:33:45;;;;;;;;;;;19.20;99.90;;;;;;5055085;28;19929;-66
2022/03/09 11:36:22;;;;;;;;;;;19.20;99.90;;;;;;5038847;28;19948;-66
2022/03/09 11:38:53;;;;;;;;;;;19.30;99.90;;;;;;5041577;28;20377;-67
2022/03/09 11:41:21;;;;;;;;;;;19.30;99.90;;;;;;5043367;28;20412;-67
2022/03/09 11:43:50;;;;;;;;;;;19.30;99.90;;;;;;5033872;28;19933;-67
2022/03/09 11:46:17;;;;;;;;;;;19.30;99.90;;;;;;5019473;28;20068;-67
2022/03/09 11:48:57;;;;;;;;;;;19.30;99.90;;;;;;5028212;28;19928;-69
2022/03/09 11:51:28;;;;;;;;;;;19.30;99.90;;;;;;5021215;28;19948;-68
2022/03/09 11:53:59;;;;;;;;;;;19.30;99.90;;;;;;5034253;28;19925;-68
2022/03/09 11:56:40;;;;;;;;;;;19.30;99.90;;;;;;5043955;28;19940;-69
2022/03/09 11:59:08;;;;;;;;;;;19.20;99.90;;;;;;5047379;28;19929;-68
2022/03/09 12:01:54;;;;;;;;;;;19.20;99.90;;;;;;5022076;28;19933;-68
2022/03/09 12:04:40;;;;;;;;;;;19.20;99.90;;;;;;5016303;28;19933;-67
2022/03/09 12:07:08;;;;;;;;;;;19.20;99.90;;;;;;5012604;28;20399;-69
2022/03/09 12:09:54;;;;;;;;;;;19.20;99.90;;;;;;5023939;28;19929;-69
2022/03/09 12:12:21;;;;;;;;;;;19.20;99.90;;;;;;5026827;28;19940;-68
2022/03/09 12:15:00;;;;;;;;;;;19.20;99.90;;;;;;5021636;28;19929;-69
2022/03/09 12:17:43;;;;;;;;;;;19.20;99.90;;;;;;5031560;28;20008;-69
2022/03/09 12:20:18;;;;;;;;;;;19.20;99.90;;;;;;5024238;28;19929;-69
2022/03/09 12:23:01;;;;;;;;;;;19.20;99.90;;;;;;5028628;28;20109;-69
2022/03/09 12:25:43;;;;;;;;;;;19.20;99.90;;;;;;5017438;28;19941;-69
2022/03/09 12:28:20;;;;;;;;;;;19.20;99.90;;;;;;5022190;28;20414;-68
2022/03/09 12:30:52;;;;;;;;;;;19.20;99.90;;;;;;5011457;28;20020;-70
2022/03/09 12:33:30;;;;;;;;;;;19.20;99.90;;;;;;5026566;28;19944;-69
2022/03/09 12:36:04;;;;;;;;;;;19.20;99.90;;;;;;5023137;28;20009;-69
2022/03/09 12:38:53;;;;;;;;;;;19.20;99.90;;;;;;5025791;28;19944;-67
2022/03/09 12:41:27;;;;;;;;;;;19.00;99.90;;;;;;5023984;28;20460;-68
2022/03/09 12:43:59;;;;;;;;;;;19.00;99.90;;;;;;5018827;28;19936;-68
2022/03/09 12:46:27;;;;;;;;;;;19.00;99.90;;;;;;5022581;28;19933;-68
2022/03/09 12:49:05;;;;;;;;;;;19.10;99.90;;;;;;5024838;28;19930;-66
2022/03/09 12:51:33;;;;;;;;;;;19.10;99.90;;;;;;5029006;28;19936;-69
2022/03/09 12:54:31;;;;;;;;;;;19.10;99.90;;;;;;5027131;28;20364;-69
2022/03/09 12:57:17;;;;;;;;;;;19.20;99.90;;;;;;5025530;28;19937;-68
2022/03/09 13:00:03;;;;;;;;;;;19.20;99.90;;;;;;5026643;28;19933;-67
2022/03/09 13:02:41;;;;;;;;;;;19.20;99.90;;;;;;5025611;28;19944;-66
2022/03/09 13:05:10;;;;;;;;;;;19.20;99.90;;;;;;5025959;28;20377;-67
2022/03/09 13:07:37;;;;;;;;;;;19.20;99.90;;;;;;5028575;28;19962;-66
2022/03/09 13:10:10;;;;;;;;;;;19.20;99.90;;;;;;5031010;28;19929;-65
2022/03/09 13:12:50;;;;;;;;;;;19.20;99.90;;;;;;5021425;28;19932;-66
2022/03/09 13:15:20;;;;;;;;;;;19.20;99.90;;;;;;5022251;28;20001;-67
2022/03/09 13:17:48;;;;;;;;;;;19.30;99.90;;;;;;5022229;28;19932;-65
2022/03/09 13:20:16;;;;;;;;;;;19.30;99.90;;;;;;5019849;28;19930;-65
2022/03/09 13:22:44;;;;;;;;;;;19.30;99.90;;;;;;5022065;28;19936;-66
2022/03/09 13:25:12;;;;;;;;;;;19.30;99.90;;;;;;5025260;28;20285;-66
2022/03/09 13:27:40;;;;;;;;;;;19.20;99.90;;;;;;5021490;28;19929;-66
2022/03/09 13:30:14;;;;;;;;;;;19.20;99.90;;;;;;5029808;28;20202;-66
2022/03/09 13:32:44;;;;;;;;;;;19.10;99.90;;;;;;5043069;28;19929;-68
2022/03/09 13:35:19;;;;;;;;;;;19.00;99.90;;;;;;5029199;28;20181;-67
2022/03/09 13:37:46;;;;;;;;;;;19.00;99.70;;;;;;5026699;28;20409;-66
2022/03/09 13:40:16;;;;;;;;;;;19.10;98.90;;;;;;5017587;28;20378;-68
2022/03/09 13:42:44;;;;;;;;;;;19.10;98.70;;;;;;5027147;28;19929;-67
2022/03/09 13:45:11;;;;;;;;;;;19.10;98.60;;;;;;5014436;28;19948;-65
2022/03/09 13:47:47;;;;;;;;;;;19.10;98.50;;;;;;5024142;28;19932;-65
2022/03/09 13:50:15;;;;;;;;;;;19.10;98.50;;;;;;5022741;28;19948;-64
2022/03/09 13:52:43;;;;;;;;;;;19.10;98.30;;;;;;5022234;28;20043;-66
2022/03/09 13:55:17;;;;;;;;;;;19.10;98.30;;;;;;5021512;28;19929;-64
2022/03/09 13:57:45;;;;;;;;;;;19.20;98.10;;;;;;5014132;28;19925;-66
2022/03/09 14:00:21;;;;;;;;;;;19.20;98.00;;;;;;5012129;28;19929;-65
2022/03/09 14:02:53;;;;;;;;;;;19.20;98.00;;;;;;5021119;28;19933;-64
2022/03/09 14:05:28;;;;;;;;;;;19.20;97.80;;;;;;5013626;28;19937;-66
2022/03/09 14:08:00;;;;;;;;;;;19.20;97.80;;;;;;5015693;28;20312;-64
2022/03/09 14:10:31;;;;;;;;;;;19.10;97.80;;;;;;5014336;28;19930;-62
2022/03/09 14:13:08;;;;;;;;;;;19.00;97.70;;;;;;5015107;28;20321;-66
2022/03/09 14:15:35;;;;;;;;;;;18.90;97.70;;;;;;5011464;28;19930;-66
2022/03/09 14:18:03;;;;;;;;;;;18.90;97.80;;;;;;5022134;28;19926;-64
2022/03/09 14:20:30;;;;;;;;;;;18.90;97.80;;;;;;5012403;28;19929;-67
2022/03/09 14:22:57;;;;;;;;;;;18.90;97.70;;;;;;5012661;28;19934;-65
2022/03/09 14:25:25;;;;;;;;;;;18.80;97.70;;;;;;5029098;28;19940;-67
2022/03/09 14:27:54;;;;;;;;;;;18.80;97.80;;;;;;5030745;28;20293;-64
2022/03/09 14:30:21;;;;;;;;;;;18.80;97.80;;;;;;5030962;28;19936;-64